サルタ の空港の天気 - METARとTAF

サルタ空港 ( SASA / SLA ) - アルゼンチン サルタ州、Salta
飛行場実況気象(Metar)
観測時間12/10 02:00 ART (12/10 05:00 UTC)
風向・風速南西 1m/s
視程10km以上
天気現象
なし
気温19℃
湿度88%
気圧1018hPa
METARSASA 100500Z 23002KT CAVOK 19/17 Q1018
過去の天気等 Google飛行場航空写真 Wunderground天気予報

過去48時間のMETAR

飛行場予報(TAF)
発表時間: 12/09 20:00 ART (12/09 23:00 UTC)
予報対象時間: 9日21時 ART ~ 10日21時 ART
風向・風速北北西 3m/s
視程10km以上
全天の4割程度の塔状積雲 雲底高度 610m
9日22時 ART ~ 9日24時 ART に徐々に
全天の8割程度の雲 雲底高度 610m
10日11時 ART ~ 10日14時 ART に徐々に
風向・風速東北東 5m/s
視程10km以上
全天の4割程度の塔状積雲 雲底高度 760m
TAF SASA 092300Z 1000/1024 34005KT 9999 SCT020TCU TX32/1018Z TN17/1010Z
BECMG 1001/1003 BKN020
BECMG 1014/1017 07010KT 9999 SCT025TCU